sensor_id;sensor_type;location;lat;lon;timestamp;P1;durP1;ratioP1;P2;durP2;ratioP2
20695;SDS011;10507;52.754;13.040;2022-08-01T00:00:19;7.85;;;6.15;;
20695;SDS011;10507;52.754;13.040;2022-08-01T00:02:50;8.00;;;6.18;;
20695;SDS011;10507;52.754;13.040;2022-08-01T00:05:27;8.63;;;6.57;;
20695;SDS011;10507;52.754;13.040;2022-08-01T00:08:03;7.65;;;6.25;;
20695;SDS011;10507;52.754;13.040;2022-08-01T00:10:51;8.20;;;6.05;;
20695;SDS011;10507;52.754;13.040;2022-08-01T00:13:29;10.32;;;5.65;;
20695;SDS011;10507;52.754;13.040;2022-08-01T00:16:06;11.90;;;5.75;;
20695;SDS011;10507;52.754;13.040;2022-08-01T00:18:34;11.20;;;5.65;;
20695;SDS011;10507;52.754;13.040;2022-08-01T00:21:05;9.90;;;6.63;;
20695;SDS011;10507;52.754;13.040;2022-08-01T00:23:39;9.68;;;6.80;;
20695;SDS011;10507;52.754;13.040;2022-08-01T00:26:10;10.23;;;6.90;;
20695;SDS011;10507;52.754;13.040;2022-08-01T00:28:38;9.95;;;6.80;;
20695;SDS011;10507;52.754;13.040;2022-08-01T00:31:08;8.10;;;6.97;;
20695;SDS011;10507;52.754;13.040;2022-08-01T00:33:35;8.63;;;7.70;;
20695;SDS011;10507;52.754;13.040;2022-08-01T00:36:06;9.10;;;7.63;;
20695;SDS011;10507;52.754;13.040;2022-08-01T00:38:34;10.13;;;7.28;;
20695;SDS011;10507;52.754;13.040;2022-08-01T00:41:02;9.15;;;7.32;;
20695;SDS011;10507;52.754;13.040;2022-08-01T00:43:30;8.77;;;7.05;;
20695;SDS011;10507;52.754;13.040;2022-08-01T00:45:58;9.25;;;7.82;;
20695;SDS011;10507;52.754;13.040;2022-08-01T00:48:28;9.75;;;7.60;;
20695;SDS011;10507;52.754;13.040;2022-08-01T00:51:01;9.00;;;7.70;;
20695;SDS011;10507;52.754;13.040;2022-08-01T00:53:32;9.52;;;7.93;;
20695;SDS011;10507;52.754;13.040;2022-08-01T00:56:17;7.78;;;7.03;;
20695;SDS011;10507;52.754;13.040;2022-08-01T00:58:47;9.65;;;6.55;;
20695;SDS011;10507;52.754;13.040;2022-08-01T01:01:15;8.48;;;7.40;;
20695;SDS011;10507;52.754;13.040;2022-08-01T01:03:44;8.68;;;7.78;;
20695;SDS011;10507;52.754;13.040;2022-08-01T01:06:31;8.27;;;7.47;;
20695;SDS011;10507;52.754;13.040;2022-08-01T01:09:15;10.50;;;7.93;;
20695;SDS011;10507;52.754;13.040;2022-08-01T01:11:51;8.18;;;6.93;;
20695;SDS011;10507;52.754;13.040;2022-08-01T01:14:30;9.40;;;7.00;;
20695;SDS011;10507;52.754;13.040;2022-08-01T01:17:04;8.25;;;7.45;;
20695;SDS011;10507;52.754;13.040;2022-08-01T01:19:35;8.75;;;7.85;;
20695;SDS011;10507;52.754;13.040;2022-08-01T01:25:07;8.68;;;7.32;;
20695;SDS011;10507;52.754;13.040;2022-08-01T01:27:57;10.25;;;7.43;;
20695;SDS011;10507;52.754;13.040;2022-08-01T01:30:36;7.93;;;7.13;;
20695;SDS011;10507;52.754;13.040;2022-08-01T01:33:06;9.65;;;8.10;;
20695;SDS011;10507;52.754;13.040;2022-08-01T01:35:38;8.23;;;7.43;;
20695;SDS011;10507;52.754;13.040;2022-08-01T01:38:13;8.48;;;7.43;;
20695;SDS011;10507;52.754;13.040;2022-08-01T01:40:44;8.18;;;7.32;;
20695;SDS011;10507;52.754;13.040;2022-08-01T01:43:15;9.02;;;7.55;;
20695;SDS011;10507;52.754;13.040;2022-08-01T01:45:47;8.98;;;8.07;;
20695;SDS011;10507;52.754;13.040;2022-08-01T01:48:19;8.55;;;7.70;;
20695;SDS011;10507;52.754;13.040;2022-08-01T01:50:48;11.32;;;8.55;;
20695;SDS011;10507;52.754;13.040;2022-08-01T01:53:19;9.02;;;8.07;;
20695;SDS011;10507;52.754;13.040;2022-08-01T01:55:49;9.02;;;8.13;;
20695;SDS011;10507;52.754;13.040;2022-08-01T01:58:20;9.95;;;8.65;;
20695;SDS011;10507;52.754;13.040;2022-08-01T02:00:52;9.48;;;8.48;;
20695;SDS011;10507;52.754;13.040;2022-08-01T02:03:21;10.38;;;8.75;;
20695;SDS011;10507;52.754;13.040;2022-08-01T02:05:51;10.40;;;9.20;;
20695;SDS011;10507;52.754;13.040;2022-08-01T02:08:20;10.25;;;8.57;;
20695;SDS011;10507;52.754;13.040;2022-08-01T02:10:50;10.05;;;8.55;;
20695;SDS011;10507;52.754;13.040;2022-08-01T02:13:38;12.05;;;9.25;;
20695;SDS011;10507;52.754;13.040;2022-08-01T02:16:10;10.25;;;8.93;;
20695;SDS011;10507;52.754;13.040;2022-08-01T02:18:40;9.52;;;8.60;;
20695;SDS011;10507;52.754;13.040;2022-08-01T02:21:09;9.55;;;8.35;;
20695;SDS011;10507;52.754;13.040;2022-08-01T02:23:41;9.98;;;8.50;;
20695;SDS011;10507;52.754;13.040;2022-08-01T02:26:13;9.55;;;8.27;;
20695;SDS011;10507;52.754;13.040;2022-08-01T02:28:43;10.85;;;9.32;;
20695;SDS011;10507;52.754;13.040;2022-08-01T02:31:16;12.32;;;9.82;;
20695;SDS011;10507;52.754;13.040;2022-08-01T02:33:50;10.80;;;9.70;;
20695;SDS011;10507;52.754;13.040;2022-08-01T02:36:23;9.75;;;8.80;;
20695;SDS011;10507;52.754;13.040;2022-08-01T02:38:58;10.93;;;9.80;;
20695;SDS011;10507;52.754;13.040;2022-08-01T02:41:29;11.07;;;9.98;;
20695;SDS011;10507;52.754;13.040;2022-08-01T02:43:59;11.32;;;10.23;;
20695;SDS011;10507;52.754;13.040;2022-08-01T02:46:33;11.77;;;10.50;;
20695;SDS011;10507;52.754;13.040;2022-08-01T02:49:03;12.27;;;10.38;;
20695;SDS011;10507;52.754;13.040;2022-08-01T02:51:35;10.95;;;9.85;;
20695;SDS011;10507;52.754;13.040;2022-08-01T02:54:04;12.63;;;11.13;;
20695;SDS011;10507;52.754;13.040;2022-08-01T02:56:38;12.90;;;11.60;;
20695;SDS011;10507;52.754;13.040;2022-08-01T02:59:19;13.07;;;11.82;;
20695;SDS011;10507;52.754;13.040;2022-08-01T03:01:58;12.65;;;11.35;;
20695;SDS011;10507;52.754;13.040;2022-08-01T03:04:29;13.13;;;11.73;;
20695;SDS011;10507;52.754;13.040;2022-08-01T03:06:58;13.32;;;11.93;;
20695;SDS011;10507;52.754;13.040;2022-08-01T03:09:29;13.50;;;12.10;;
20695;SDS011;10507;52.754;13.040;2022-08-01T03:12:18;14.13;;;12.02;;
20695;SDS011;10507;52.754;13.040;2022-08-01T03:14:55;13.80;;;12.40;;
20695;SDS011;10507;52.754;13.040;2022-08-01T03:17:30;13.60;;;11.60;;
20695;SDS011;10507;52.754;13.040;2022-08-01T03:20:04;13.05;;;11.85;;
20695;SDS011;10507;52.754;13.040;2022-08-01T03:22:37;12.98;;;11.32;;
20695;SDS011;10507;52.754;13.040;2022-08-01T03:25:07;13.50;;;12.10;;
20695;SDS011;10507;52.754;13.040;2022-08-01T03:27:36;14.02;;;12.60;;
20695;SDS011;10507;52.754;13.040;2022-08-01T03:30:04;15.57;;;13.05;;
20695;SDS011;10507;52.754;13.040;2022-08-01T03:32:35;15.38;;;13.13;;
20695;SDS011;10507;52.754;13.040;2022-08-01T03:35:03;15.10;;;13.55;;
20695;SDS011;10507;52.754;13.040;2022-08-01T03:37:33;14.77;;;13.32;;
20695;SDS011;10507;52.754;13.040;2022-08-01T03:40:28;14.85;;;13.35;;
20695;SDS011;10507;52.754;13.040;2022-08-01T03:43:04;14.95;;;13.23;;
20695;SDS011;10507;52.754;13.040;2022-08-01T03:45:35;13.88;;;12.45;;
20695;SDS011;10507;52.754;13.040;2022-08-01T03:48:09;14.63;;;13.18;;
20695;SDS011;10507;52.754;13.040;2022-08-01T03:50:41;12.98;;;11.57;;
20695;SDS011;10507;52.754;13.040;2022-08-01T03:53:12;16.67;;;12.50;;
20695;SDS011;10507;52.754;13.040;2022-08-01T03:55:42;15.32;;;13.13;;
20695;SDS011;10507;52.754;13.040;2022-08-01T03:58:11;13.50;;;12.10;;
20695;SDS011;10507;52.754;13.040;2022-08-01T04:00:40;15.05;;;13.38;;
20695;SDS011;10507;52.754;13.040;2022-08-01T04:03:10;15.65;;;12.48;;
20695;SDS011;10507;52.754;13.040;2022-08-01T04:05:40;13.75;;;12.35;;
20695;SDS011;10507;52.754;13.040;2022-08-01T04:08:08;16.58;;;14.38;;
20695;SDS011;10507;52.754;13.040;2022-08-01T04:10:39;14.95;;;12.77;;
20695;SDS011;10507;52.754;13.040;2022-08-01T04:13:08;14.30;;;12.90;;
20695;SDS011;10507;52.754;13.040;2022-08-01T04:15:36;15.23;;;13.52;;
20695;SDS011;10507;52.754;13.040;2022-08-01T04:18:04;13.98;;;12.68;;
20695;SDS011;10507;52.754;13.040;2022-08-01T04:20:34;13.93;;;12.45;;
20695;SDS011;10507;52.754;13.040;2022-08-01T04:23:02;14.52;;;13.13;;
20695;SDS011;10507;52.754;13.040;2022-08-01T04:25:32;15.15;;;13.65;;
20695;SDS011;10507;52.754;13.040;2022-08-01T04:28:01;14.65;;;12.23;;
20695;SDS011;10507;52.754;13.040;2022-08-01T04:30:34;15.73;;;13.90;;
20695;SDS011;10507;52.754;13.040;2022-08-01T04:33:05;19.52;;;13.48;;
20695;SDS011;10507;52.754;13.040;2022-08-01T04:35:37;16.75;;;13.77;;
20695;SDS011;10507;52.754;13.040;2022-08-01T04:38:28;18.38;;;13.95;;
20695;SDS011;10507;52.754;13.040;2022-08-01T04:40:59;15.43;;;13.70;;
20695;SDS011;10507;52.754;13.040;2022-08-01T04:43:34;15.75;;;13.80;;
20695;SDS011;10507;52.754;13.040;2022-08-01T04:46:03;16.30;;;14.57;;
20695;SDS011;10507;52.754;13.040;2022-08-01T04:48:43;16.02;;;14.13;;
20695;SDS011;10507;52.754;13.040;2022-08-01T04:51:14;17.17;;;15.07;;
20695;SDS011;10507;52.754;13.040;2022-08-01T04:53:55;16.60;;;14.43;;
20695;SDS011;10507;52.754;13.040;2022-08-01T04:56:55;17.67;;;14.93;;
20695;SDS011;10507;52.754;13.040;2022-08-01T04:59:26;17.92;;;14.98;;
20695;SDS011;10507;52.754;13.040;2022-08-01T05:02:11;17.95;;;14.48;;
20695;SDS011;10507;52.754;13.040;2022-08-01T05:04:41;23.42;;;14.70;;
20695;SDS011;10507;52.754;13.040;2022-08-01T05:07:11;18.45;;;14.80;;
20695;SDS011;10507;52.754;13.040;2022-08-01T05:09:42;17.13;;;14.95;;
20695;SDS011;10507;52.754;13.040;2022-08-01T05:12:13;16.92;;;14.20;;
20695;SDS011;10507;52.754;13.040;2022-08-01T05:14:42;18.25;;;15.45;;
20695;SDS011;10507;52.754;13.040;2022-08-01T05:17:09;9.40;;;6.88;;
20695;SDS011;10507;52.754;13.040;2022-08-01T05:19:38;12.82;;;10.20;;
20695;SDS011;10507;52.754;13.040;2022-08-01T05:22:10;10.23;;;8.25;;
20695;SDS011;10507;52.754;13.040;2022-08-01T05:24:39;12.35;;;10.00;;
20695;SDS011;10507;52.754;13.040;2022-08-01T05:27:10;8.98;;;7.32;;
20695;SDS011;10507;52.754;13.040;2022-08-01T05:29:41;15.38;;;7.28;;
20695;SDS011;10507;52.754;13.040;2022-08-01T05:32:17;11.13;;;8.38;;
20695;SDS011;10507;52.754;13.040;2022-08-01T05:34:45;10.77;;;8.45;;
20695;SDS011;10507;52.754;13.040;2022-08-01T05:37:14;9.82;;;8.45;;
20695;SDS011;10507;52.754;13.040;2022-08-01T05:39:42;10.25;;;7.25;;
20695;SDS011;10507;52.754;13.040;2022-08-01T05:42:12;8.93;;;7.35;;
20695;SDS011;10507;52.754;13.040;2022-08-01T05:44:43;9.50;;;8.07;;
20695;SDS011;10507;52.754;13.040;2022-08-01T05:47:11;9.82;;;6.47;;
20695;SDS011;10507;52.754;13.040;2022-08-01T05:49:40;8.75;;;6.97;;
20695;SDS011;10507;52.754;13.040;2022-08-01T05:52:12;9.73;;;7.93;;
20695;SDS011;10507;52.754;13.040;2022-08-01T05:54:57;10.93;;;9.25;;
20695;SDS011;10507;52.754;13.040;2022-08-01T05:57:32;9.73;;;8.35;;
20695;SDS011;10507;52.754;13.040;2022-08-01T06:00:40;10.45;;;8.40;;
20695;SDS011;10507;52.754;13.040;2022-08-01T06:03:16;9.77;;;8.38;;
20695;SDS011;10507;52.754;13.040;2022-08-01T06:05:47;10.10;;;6.85;;
20695;SDS011;10507;52.754;13.040;2022-08-01T06:08:15;9.68;;;7.72;;
20695;SDS011;10507;52.754;13.040;2022-08-01T06:10:44;8.40;;;7.45;;
20695;SDS011;10507;52.754;13.040;2022-08-01T06:13:12;8.27;;;6.80;;
20695;SDS011;10507;52.754;13.040;2022-08-01T06:15:40;9.45;;;7.65;;
20695;SDS011;10507;52.754;13.040;2022-08-01T06:18:08;9.10;;;7.78;;
20695;SDS011;10507;52.754;13.040;2022-08-01T06:20:39;9.48;;;6.78;;
20695;SDS011;10507;52.754;13.040;2022-08-01T06:23:07;10.38;;;7.53;;
20695;SDS011;10507;52.754;13.040;2022-08-01T06:25:56;8.35;;;6.63;;
20695;SDS011;10507;52.754;13.040;2022-08-01T06:28:24;6.25;;;5.10;;
20695;SDS011;10507;52.754;13.040;2022-08-01T06:30:52;6.82;;;5.22;;
20695;SDS011;10507;52.754;13.040;2022-08-01T06:33:20;6.07;;;5.28;;
20695;SDS011;10507;52.754;13.040;2022-08-01T06:35:48;8.27;;;4.90;;
20695;SDS011;10507;52.754;13.040;2022-08-01T06:38:16;6.30;;;5.18;;
20695;SDS011;10507;52.754;13.040;2022-08-01T06:40:44;6.28;;;4.32;;
20695;SDS011;10507;52.754;13.040;2022-08-01T06:43:15;5.72;;;5.15;;
20695;SDS011;10507;52.754;13.040;2022-08-01T06:45:43;4.80;;;4.13;;
20695;SDS011;10507;52.754;13.040;2022-08-01T06:48:11;4.72;;;3.70;;
20695;SDS011;10507;52.754;13.040;2022-08-01T06:50:39;5.18;;;3.92;;
20695;SDS011;10507;52.754;13.040;2022-08-01T06:53:07;4.72;;;4.18;;
20695;SDS011;10507;52.754;13.040;2022-08-01T06:55:35;5.28;;;4.25;;
20695;SDS011;10507;52.754;13.040;2022-08-01T06:58:02;5.88;;;4.97;;
20695;SDS011;10507;52.754;13.040;2022-08-01T07:00:32;5.97;;;4.10;;
20695;SDS011;10507;52.754;13.040;2022-08-01T07:03:00;6.03;;;3.75;;
20695;SDS011;10507;52.754;13.040;2022-08-01T07:05:28;5.53;;;4.38;;
20695;SDS011;10507;52.754;13.040;2022-08-01T07:08:00;7.30;;;4.22;;
20695;SDS011;10507;52.754;13.040;2022-08-01T07:10:28;6.82;;;5.72;;
20695;SDS011;10507;52.754;13.040;2022-08-01T07:12:57;6.80;;;5.25;;
20695;SDS011;10507;52.754;13.040;2022-08-01T07:15:25;6.25;;;5.20;;
20695;SDS011;10507;52.754;13.040;2022-08-01T07:17:58;8.00;;;5.05;;
20695;SDS011;10507;52.754;13.040;2022-08-01T07:20:29;6.75;;;5.15;;
20695;SDS011;10507;52.754;13.040;2022-08-01T07:23:19;8.45;;;5.95;;
20695;SDS011;10507;52.754;13.040;2022-08-01T07:25:59;6.45;;;5.10;;
20695;SDS011;10507;52.754;13.040;2022-08-01T07:28:28;6.50;;;4.53;;
20695;SDS011;10507;52.754;13.040;2022-08-01T07:30:56;7.07;;;5.03;;
20695;SDS011;10507;52.754;13.040;2022-08-01T07:33:26;7.35;;;5.53;;
20695;SDS011;10507;52.754;13.040;2022-08-01T07:36:13;6.68;;;5.00;;
20695;SDS011;10507;52.754;13.040;2022-08-01T07:38:41;5.57;;;4.65;;
20695;SDS011;10507;52.754;13.040;2022-08-01T07:41:10;5.78;;;4.88;;
20695;SDS011;10507;52.754;13.040;2022-08-01T07:43:38;7.10;;;5.40;;
20695;SDS011;10507;52.754;13.040;2022-08-01T07:46:10;7.38;;;6.13;;
20695;SDS011;10507;52.754;13.040;2022-08-01T07:48:40;8.02;;;6.32;;
20695;SDS011;10507;52.754;13.040;2022-08-01T07:51:08;8.43;;;5.90;;
20695;SDS011;10507;52.754;13.040;2022-08-01T07:53:36;6.93;;;5.15;;
20695;SDS011;10507;52.754;13.040;2022-08-01T07:56:05;6.32;;;4.93;;
20695;SDS011;10507;52.754;13.040;2022-08-01T07:58:36;5.90;;;4.70;;
20695;SDS011;10507;52.754;13.040;2022-08-01T08:01:04;8.48;;;5.43;;
20695;SDS011;10507;52.754;13.040;2022-08-01T08:03:33;5.82;;;4.13;;
20695;SDS011;10507;52.754;13.040;2022-08-01T08:06:04;6.28;;;4.78;;
20695;SDS011;10507;52.754;13.040;2022-08-01T08:08:32;8.18;;;5.15;;
20695;SDS011;10507;52.754;13.040;2022-08-01T08:11:00;6.07;;;4.45;;
20695;SDS011;10507;52.754;13.040;2022-08-01T08:13:28;8.20;;;4.43;;
20695;SDS011;10507;52.754;13.040;2022-08-01T08:15:58;4.93;;;3.80;;
20695;SDS011;10507;52.754;13.040;2022-08-01T08:18:26;4.53;;;3.63;;
20695;SDS011;10507;52.754;13.040;2022-08-01T08:20:55;5.63;;;4.30;;
20695;SDS011;10507;52.754;13.040;2022-08-01T08:23:31;6.28;;;4.03;;
20695;SDS011;10507;52.754;13.040;2022-08-01T08:26:16;7.68;;;4.32;;
20695;SDS011;10507;52.754;13.040;2022-08-01T08:28:46;6.65;;;4.68;;
20695;SDS011;10507;52.754;13.040;2022-08-01T08:31:14;5.70;;;4.97;;
20695;SDS011;10507;52.754;13.040;2022-08-01T08:33:51;5.07;;;3.88;;
20695;SDS011;10507;52.754;13.040;2022-08-01T08:36:19;6.10;;;4.20;;
20695;SDS011;10507;52.754;13.040;2022-08-01T08:38:58;6.70;;;4.20;;
20695;SDS011;10507;52.754;13.040;2022-08-01T08:41:28;5.35;;;4.00;;
20695;SDS011;10507;52.754;13.040;2022-08-01T08:44:03;5.75;;;3.75;;
20695;SDS011;10507;52.754;13.040;2022-08-01T08:46:38;6.70;;;4.30;;
20695;SDS011;10507;52.754;13.040;2022-08-01T08:49:09;5.13;;;4.25;;
20695;SDS011;10507;52.754;13.040;2022-08-01T08:51:42;5.13;;;3.65;;
20695;SDS011;10507;52.754;13.040;2022-08-01T08:54:12;7.43;;;3.95;;
20695;SDS011;10507;52.754;13.040;2022-08-01T08:56:42;4.60;;;3.47;;
20695;SDS011;10507;52.754;13.040;2022-08-01T08:59:11;5.03;;;2.70;;
20695;SDS011;10507;52.754;13.040;2022-08-01T09:01:42;4.32;;;3.35;;
20695;SDS011;10507;52.754;13.040;2022-08-01T09:04:14;4.45;;;2.92;;
20695;SDS011;10507;52.754;13.040;2022-08-01T09:06:49;3.30;;;2.72;;
20695;SDS011;10507;52.754;13.040;2022-08-01T09:09:19;4.72;;;3.17;;
20695;SDS011;10507;52.754;13.040;2022-08-01T09:11:48;3.60;;;2.70;;
20695;SDS011;10507;52.754;13.040;2022-08-01T09:14:23;5.10;;;3.17;;
20695;SDS011;10507;52.754;13.040;2022-08-01T09:16:59;5.00;;;3.58;;
20695;SDS011;10507;52.754;13.040;2022-08-01T09:19:34;4.88;;;3.67;;
20695;SDS011;10507;52.754;13.040;2022-08-01T09:22:06;4.85;;;3.40;;
20695;SDS011;10507;52.754;13.040;2022-08-01T09:24:37;3.88;;;2.97;;
20695;SDS011;10507;52.754;13.040;2022-08-01T09:27:16;4.00;;;3.50;;
20695;SDS011;10507;52.754;13.040;2022-08-01T09:29:47;4.00;;;3.40;;
20695;SDS011;10507;52.754;13.040;2022-08-01T09:32:27;5.55;;;3.47;;
20695;SDS011;10507;52.754;13.040;2022-08-01T09:35:03;14.77;;;4.00;;
20695;SDS011;10507;52.754;13.040;2022-08-01T09:38:11;4.75;;;2.40;;
20695;SDS011;10507;52.754;13.040;2022-08-01T09:40:46;4.30;;;2.58;;
20695;SDS011;10507;52.754;13.040;2022-08-01T09:43:15;3.17;;;2.33;;
20695;SDS011;10507;52.754;13.040;2022-08-01T09:45:44;3.95;;;2.63;;
20695;SDS011;10507;52.754;13.040;2022-08-01T09:48:16;4.47;;;2.65;;
20695;SDS011;10507;52.754;13.040;2022-08-01T09:50:44;2.88;;;2.17;;
20695;SDS011;10507;52.754;13.040;2022-08-01T09:53:14;3.08;;;2.50;;
20695;SDS011;10507;52.754;13.040;2022-08-01T09:56:07;2.83;;;2.35;;
20695;SDS011;10507;52.754;13.040;2022-08-01T09:58:53;3.30;;;2.38;;
20695;SDS011;10507;52.754;13.040;2022-08-01T10:01:26;4.30;;;2.60;;
20695;SDS011;10507;52.754;13.040;2022-08-01T10:04:04;3.88;;;2.53;;
20695;SDS011;10507;52.754;13.040;2022-08-01T10:06:35;3.78;;;2.70;;
20695;SDS011;10507;52.754;13.040;2022-08-01T10:09:03;3.13;;;2.47;;
20695;SDS011;10507;52.754;13.040;2022-08-01T10:11:33;3.33;;;2.10;;
20695;SDS011;10507;52.754;13.040;2022-08-01T10:14:05;2.53;;;2.10;;
20695;SDS011;10507;52.754;13.040;2022-08-01T10:16:34;2.92;;;2.38;;
20695;SDS011;10507;52.754;13.040;2022-08-01T10:19:05;4.18;;;1.92;;
20695;SDS011;10507;52.754;13.040;2022-08-01T10:21:41;2.17;;;1.50;;
20695;SDS011;10507;52.754;13.040;2022-08-01T10:24:24;2.40;;;1.60;;
20695;SDS011;10507;52.754;13.040;2022-08-01T10:26:57;1.83;;;1.70;;
20695;SDS011;10507;52.754;13.040;2022-08-01T10:29:37;2.20;;;1.92;;
20695;SDS011;10507;52.754;13.040;2022-08-01T10:32:25;2.88;;;2.13;;
20695;SDS011;10507;52.754;13.040;2022-08-01T10:34:54;1.92;;;1.73;;
20695;SDS011;10507;52.754;13.040;2022-08-01T10:37:23;1.83;;;1.40;;
20695;SDS011;10507;52.754;13.040;2022-08-01T10:39:52;1.30;;;1.20;;
20695;SDS011;10507;52.754;13.040;2022-08-01T10:42:44;1.52;;;1.08;;
20695;SDS011;10507;52.754;13.040;2022-08-01T10:45:13;1.92;;;1.05;;
20695;SDS011;10507;52.754;13.040;2022-08-01T10:47:44;1.25;;;0.80;;
20695;SDS011;10507;52.754;13.040;2022-08-01T10:50:19;2.10;;;1.10;;
20695;SDS011;10507;52.754;13.040;2022-08-01T10:53:03;2.08;;;1.10;;
20695;SDS011;10507;52.754;13.040;2022-08-01T10:55:48;2.33;;;1.40;;
20695;SDS011;10507;52.754;13.040;2022-08-01T10:58:25;2.90;;;1.10;;
20695;SDS011;10507;52.754;13.040;2022-08-01T11:03:55;2.78;;;0.93;;
20695;SDS011;10507;52.754;13.040;2022-08-01T11:06:33;1.33;;;1.00;;
20695;SDS011;10507;52.754;13.040;2022-08-01T11:09:16;1.08;;;0.98;;
20695;SDS011;10507;52.754;13.040;2022-08-01T11:12:03;1.15;;;0.95;;
20695;SDS011;10507;52.754;13.040;2022-08-01T11:17:56;2.03;;;0.88;;
20695;SDS011;10507;52.754;13.040;2022-08-01T11:20:26;1.10;;;1.00;;
20695;SDS011;10507;52.754;13.040;2022-08-01T11:29:14;3.00;;;1.30;;
20695;SDS011;10507;52.754;13.040;2022-08-01T11:31:49;2.40;;;1.23;;
20695;SDS011;10507;52.754;13.040;2022-08-01T11:37:23;2.42;;;1.20;;
20695;SDS011;10507;52.754;13.040;2022-08-01T11:40:15;2.65;;;1.33;;
20695;SDS011;10507;52.754;13.040;2022-08-01T11:42:44;1.58;;;1.30;;
20695;SDS011;10507;52.754;13.040;2022-08-01T11:45:14;2.08;;;1.15;;
20695;SDS011;10507;52.754;13.040;2022-08-01T11:47:48;1.55;;;0.90;;
20695;SDS011;10507;52.754;13.040;2022-08-01T11:50:32;1.20;;;1.05;;
20695;SDS011;10507;52.754;13.040;2022-08-01T11:53:03;2.63;;;1.20;;
20695;SDS011;10507;52.754;13.040;2022-08-01T11:55:32;3.95;;;1.52;;
20695;SDS011;10507;52.754;13.040;2022-08-01T11:58:02;1.40;;;1.30;;
20695;SDS011;10507;52.754;13.040;2022-08-01T12:00:31;1.95;;;1.30;;
20695;SDS011;10507;52.754;13.040;2022-08-01T12:03:02;2.05;;;1.42;;
20695;SDS011;10507;52.754;13.040;2022-08-01T12:05:34;2.55;;;1.23;;
20695;SDS011;10507;52.754;13.040;2022-08-01T12:08:08;3.10;;;1.20;;
20695;SDS011;10507;52.754;13.040;2022-08-01T12:10:36;1.35;;;1.25;;
20695;SDS011;10507;52.754;13.040;2022-08-01T12:13:14;1.88;;;1.38;;
20695;SDS011;10507;52.754;13.040;2022-08-01T12:15:44;3.05;;;1.00;;
20695;SDS011;10507;52.754;13.040;2022-08-01T12:18:16;1.88;;;1.08;;
20695;SDS011;10507;52.754;13.040;2022-08-01T12:20:45;1.63;;;1.10;;
20695;SDS011;10507;52.754;13.040;2022-08-01T12:23:22;1.63;;;1.13;;
20695;SDS011;10507;52.754;13.040;2022-08-01T12:25:58;2.78;;;1.30;;
20695;SDS011;10507;52.754;13.040;2022-08-01T12:28:38;2.78;;;1.77;;
20695;SDS011;10507;52.754;13.040;2022-08-01T12:31:10;2.05;;;1.60;;
20695;SDS011;10507;52.754;13.040;2022-08-01T12:33:39;3.17;;;1.75;;
20695;SDS011;10507;52.754;13.040;2022-08-01T12:36:07;3.15;;;1.70;;
20695;SDS011;10507;52.754;13.040;2022-08-01T12:38:40;2.10;;;1.40;;
20695;SDS011;10507;52.754;13.040;2022-08-01T12:41:14;2.05;;;1.38;;
20695;SDS011;10507;52.754;13.040;2022-08-01T12:43:48;3.40;;;1.80;;
20695;SDS011;10507;52.754;13.040;2022-08-01T12:46:19;3.20;;;1.60;;
20695;SDS011;10507;52.754;13.040;2022-08-01T12:48:51;1.50;;;1.40;;
20695;SDS011;10507;52.754;13.040;2022-08-01T12:51:22;3.35;;;1.92;;
20695;SDS011;10507;52.754;13.040;2022-08-01T12:54:00;2.10;;;1.75;;
20695;SDS011;10507;52.754;13.040;2022-08-01T12:56:31;4.60;;;1.75;;
20695;SDS011;10507;52.754;13.040;2022-08-01T12:59:20;3.08;;;1.92;;
20695;SDS011;10507;52.754;13.040;2022-08-01T13:01:54;3.30;;;2.08;;
20695;SDS011;10507;52.754;13.040;2022-08-01T13:04:27;2.13;;;1.67;;
20695;SDS011;10507;52.754;13.040;2022-08-01T13:06:56;2.33;;;1.23;;
20695;SDS011;10507;52.754;13.040;2022-08-01T13:09:24;1.60;;;1.50;;
20695;SDS011;10507;52.754;13.040;2022-08-01T13:11:52;2.00;;;1.60;;
20695;SDS011;10507;52.754;13.040;2022-08-01T13:14:30;1.92;;;1.10;;
20695;SDS011;10507;52.754;13.040;2022-08-01T13:16:58;1.83;;;1.20;;
20695;SDS011;10507;52.754;13.040;2022-08-01T13:22:16;1.20;;;0.65;;
20695;SDS011;10507;52.754;13.040;2022-08-01T13:24:44;1.10;;;0.60;;
20695;SDS011;10507;52.754;13.040;2022-08-01T13:27:19;0.80;;;0.50;;
20695;SDS011;10507;52.754;13.040;2022-08-01T13:29:51;0.32;;;0.30;;
20695;SDS011;10507;52.754;13.040;2022-08-01T13:32:24;2.47;;;0.80;;
20695;SDS011;10507;52.754;13.040;2022-08-01T13:35:02;1.60;;;0.52;;
20695;SDS011;10507;52.754;13.040;2022-08-01T13:37:33;0.73;;;0.55;;
20695;SDS011;10507;52.754;13.040;2022-08-01T13:40:04;1.40;;;0.95;;
20695;SDS011;10507;52.754;13.040;2022-08-01T13:42:35;3.63;;;0.90;;
20695;SDS011;10507;52.754;13.040;2022-08-01T13:45:06;1.67;;;0.90;;
20695;SDS011;10507;52.754;13.040;2022-08-01T13:47:44;0.93;;;0.70;;
20695;SDS011;10507;52.754;13.040;2022-08-01T13:50:34;4.95;;;1.35;;
20695;SDS011;10507;52.754;13.040;2022-08-01T13:53:02;2.88;;;0.95;;
20695;SDS011;10507;52.754;13.040;2022-08-01T13:55:30;0.85;;;0.80;;
20695;SDS011;10507;52.754;13.040;2022-08-01T13:58:07;2.20;;;0.70;;
20695;SDS011;10507;52.754;13.040;2022-08-01T14:00:39;2.20;;;0.90;;
20695;SDS011;10507;52.754;13.040;2022-08-01T14:03:11;4.28;;;0.70;;
20695;SDS011;10507;52.754;13.040;2022-08-01T14:06:00;2.13;;;0.90;;
20695;SDS011;10507;52.754;13.040;2022-08-01T14:08:31;2.28;;;0.70;;
20695;SDS011;10507;52.754;13.040;2022-08-01T14:10:59;1.48;;;0.70;;
20695;SDS011;10507;52.754;13.040;2022-08-01T14:13:32;0.98;;;0.70;;
20695;SDS011;10507;52.754;13.040;2022-08-01T14:16:11;1.23;;;0.82;;
20695;SDS011;10507;52.754;13.040;2022-08-01T14:18:40;2.05;;;0.60;;
20695;SDS011;10507;52.754;13.040;2022-08-01T14:21:11;1.17;;;0.60;;
20695;SDS011;10507;52.754;13.040;2022-08-01T14:23:47;0.68;;;0.60;;
20695;SDS011;10507;52.754;13.040;2022-08-01T14:26:15;1.67;;;0.60;;
20695;SDS011;10507;52.754;13.040;2022-08-01T14:28:43;0.60;;;0.60;;
20695;SDS011;10507;52.754;13.040;2022-08-01T14:31:10;0.90;;;0.60;;
20695;SDS011;10507;52.754;13.040;2022-08-01T14:33:44;0.70;;;0.60;;
20695;SDS011;10507;52.754;13.040;2022-08-01T14:36:16;2.33;;;0.68;;
20695;SDS011;10507;52.754;13.040;2022-08-01T14:38:56;2.10;;;0.70;;
20695;SDS011;10507;52.754;13.040;2022-08-01T14:41:26;1.52;;;0.70;;
20695;SDS011;10507;52.754;13.040;2022-08-01T14:43:56;2.95;;;0.70;;
20695;SDS011;10507;52.754;13.040;2022-08-01T14:46:24;1.52;;;0.68;;
20695;SDS011;10507;52.754;13.040;2022-08-01T14:48:52;1.67;;;0.68;;
20695;SDS011;10507;52.754;13.040;2022-08-01T14:51:22;0.77;;;0.60;;
20695;SDS011;10507;52.754;13.040;2022-08-01T14:53:52;1.00;;;0.57;;
20695;SDS011;10507;52.754;13.040;2022-08-01T14:56:20;0.65;;;0.60;;
20695;SDS011;10507;52.754;13.040;2022-08-01T14:58:48;2.22;;;0.73;;
20695;SDS011;10507;52.754;13.040;2022-08-01T15:01:23;2.05;;;0.77;;
20695;SDS011;10507;52.754;13.040;2022-08-01T15:03:57;1.58;;;0.75;;
20695;SDS011;10507;52.754;13.040;2022-08-01T15:06:36;1.90;;;0.63;;
20695;SDS011;10507;52.754;13.040;2022-08-01T15:09:05;1.58;;;0.70;;
20695;SDS011;10507;52.754;13.040;2022-08-01T15:11:34;0.52;;;0.50;;
20695;SDS011;10507;52.754;13.040;2022-08-01T15:14:02;2.75;;;0.80;;
20695;SDS011;10507;52.754;13.040;2022-08-01T15:16:48;1.77;;;0.60;;
20695;SDS011;10507;52.754;13.040;2022-08-01T15:19:15;2.90;;;0.82;;
20695;SDS011;10507;52.754;13.040;2022-08-01T15:21:47;0.77;;;0.73;;